createdAt,value
2022-09-15T00:01:25.197Z,4.70
2022-09-15T00:03:54.681Z,3.60
2022-09-15T00:06:22.758Z,3.93
2022-09-15T00:08:50.872Z,4.80
2022-09-15T00:11:22.227Z,4.00
2022-09-15T00:13:51.742Z,3.50
2022-09-15T00:16:22.328Z,2.83
2022-09-15T00:18:50.783Z,3.00
2022-09-15T00:21:23.221Z,2.60
2022-09-15T00:23:52.102Z,2.60
2022-09-15T00:26:23.122Z,2.83
2022-09-15T00:28:51.643Z,2.60
2022-09-15T00:31:23.413Z,3.23
2022-09-15T00:33:53.647Z,3.20
2022-09-15T00:36:24.527Z,2.93
2022-09-15T00:38:52.880Z,3.40
2022-09-15T00:41:23.526Z,3.80
2022-09-15T00:43:54.524Z,4.20
2022-09-15T00:46:26.199Z,4.00
2022-09-15T00:49:01.895Z,3.00
2022-09-15T00:51:40.164Z,3.67
2022-09-15T00:54:15.154Z,3.40
2022-09-15T00:56:44.502Z,2.80
2022-09-15T00:59:17.443Z,3.00
2022-09-15T01:01:51.404Z,3.10
2022-09-15T01:04:19.642Z,2.77
2022-09-15T01:06:59.504Z,3.70
2022-09-15T01:09:34.263Z,3.20
2022-09-15T01:12:04.007Z,2.67
2022-09-15T01:14:32.013Z,1.97
2022-09-15T01:17:06.901Z,1.30
2022-09-15T01:20:11.708Z,1.40
2022-09-15T01:22:57.946Z,1.20
2022-09-15T01:25:47.782Z,0.90
2022-09-15T01:28:49.448Z,1.13
2022-09-15T01:31:26.807Z,1.37
2022-09-15T01:34:00.115Z,1.20
2022-09-15T01:36:39.887Z,0.70
2022-09-15T01:39:14.509Z,1.10
2022-09-15T01:41:48.704Z,1.57
2022-09-15T01:44:22.773Z,1.10
2022-09-15T01:46:57.046Z,1.10
2022-09-15T01:49:28.508Z,0.90
2022-09-15T01:51:56.667Z,1.03
2022-09-15T01:54:29.862Z,0.80
2022-09-15T01:56:58.319Z,1.00
2022-09-15T01:59:26.658Z,0.60
2022-09-15T02:02:01.211Z,0.70
2022-09-15T02:04:36.566Z,1.00
2022-09-15T02:07:12.153Z,0.93
2022-09-15T02:09:46.471Z,1.00
2022-09-15T02:12:20.695Z,0.70
2022-09-15T02:14:58.034Z,0.70
2022-09-15T02:17:32.551Z,0.60
2022-09-15T02:20:11.224Z,0.77
2022-09-15T02:22:43.526Z,0.70
2022-09-15T02:25:16.307Z,1.00
2022-09-15T02:27:52.081Z,0.60
2022-09-15T02:30:21.678Z,0.60
2022-09-15T02:32:57.056Z,1.07
2022-09-15T02:35:26.536Z,0.90
2022-09-15T02:37:56.089Z,0.70
2022-09-15T02:40:24.761Z,1.03
2022-09-15T02:42:57.085Z,0.60
2022-09-15T02:45:26.825Z,0.70
2022-09-15T02:47:56.198Z,0.70
2022-09-15T02:50:26.355Z,2.00
2022-09-15T02:52:54.390Z,1.77
2022-09-15T02:55:22.634Z,2.07
2022-09-15T02:57:50.701Z,2.60
2022-09-15T03:00:19.973Z,2.47
2022-09-15T03:02:51.886Z,3.10
2022-09-15T03:05:23.829Z,3.60
2022-09-15T03:07:53.038Z,4.20
2022-09-15T03:10:22.327Z,4.43
2022-09-15T03:12:52.840Z,5.10
2022-09-15T03:15:24.422Z,5.30
2022-09-15T03:17:53.066Z,7.30
2022-09-15T03:20:27.941Z,7.30
2022-09-15T03:22:56.030Z,7.80
2022-09-15T03:25:26.767Z,7.50
2022-09-15T03:27:54.733Z,8.43
2022-09-15T03:30:22.759Z,8.97
2022-09-15T03:32:50.757Z,8.93
2022-09-15T03:35:18.832Z,7.80
2022-09-15T03:37:48.167Z,9.73
2022-09-15T03:40:16.469Z,9.90
2022-09-15T03:42:44.517Z,9.20
2022-09-15T03:45:12.452Z,9.50
2022-09-15T03:47:40.426Z,9.17
2022-09-15T03:50:08.954Z,10.03
2022-09-15T03:52:36.918Z,8.83
2022-09-15T03:55:07.495Z,9.73
2022-09-15T03:57:35.425Z,10.23
2022-09-15T04:00:05.141Z,10.07
2022-09-15T04:02:33.112Z,11.70
2022-09-15T04:05:01.118Z,11.27
2022-09-15T04:07:29.229Z,10.80
2022-09-15T04:09:57.197Z,11.27
2022-09-15T04:12:26.522Z,10.40
2022-09-15T04:14:54.887Z,11.93
2022-09-15T04:17:22.824Z,10.43
2022-09-15T04:19:50.802Z,11.17
2022-09-15T04:22:18.790Z,10.20
2022-09-15T04:24:47.988Z,8.70
2022-09-15T04:27:16.289Z,8.20
2022-09-15T04:29:46.117Z,9.43
2022-09-15T04:32:14.041Z,8.93
2022-09-15T04:34:41.955Z,7.70
2022-09-15T04:37:09.934Z,6.13
2022-09-15T04:39:37.976Z,5.83
2022-09-15T04:42:07.802Z,6.67
2022-09-15T04:44:35.914Z,5.87
2022-09-15T04:47:05.841Z,6.40
2022-09-15T04:49:33.934Z,6.20
2022-09-15T04:52:03.339Z,5.77
2022-09-15T04:54:34.785Z,7.03
2022-09-15T04:57:03.036Z,5.97
2022-09-15T04:59:31.002Z,6.33
2022-09-15T05:01:59.007Z,6.93
2022-09-15T05:04:28.344Z,5.83
2022-09-15T05:06:56.459Z,6.10
2022-09-15T05:09:25.179Z,6.13
2022-09-15T05:11:53.146Z,6.40
2022-09-15T05:14:21.317Z,7.80
2022-09-15T05:16:49.299Z,6.80
2022-09-15T05:19:17.283Z,6.70
2022-09-15T05:21:46.618Z,8.10
2022-09-15T05:24:14.620Z,7.33
2022-09-15T05:26:42.614Z,6.20
2022-09-15T05:29:10.581Z,6.53
2022-09-15T05:31:38.605Z,8.50
2022-09-15T05:34:07.273Z,7.30
2022-09-15T05:36:37.536Z,7.20
2022-09-15T05:39:09.716Z,7.47
2022-09-15T05:41:37.788Z,6.50
2022-09-15T05:44:05.740Z,6.10
2022-09-15T05:46:33.752Z,7.20
2022-09-15T05:49:01.776Z,8.10
2022-09-15T05:51:30.211Z,7.30
2022-09-15T05:53:58.208Z,7.17
2022-09-15T05:56:27.571Z,6.87
2022-09-15T05:58:55.559Z,8.10
2022-09-15T06:01:26.530Z,6.80
2022-09-15T06:03:55.509Z,6.70
2022-09-15T06:06:25.148Z,6.60
2022-09-15T06:08:58.482Z,6.57
2022-09-15T06:11:30.927Z,6.03
2022-09-15T06:14:00.920Z,5.13
2022-09-15T06:16:29.305Z,4.70
2022-09-15T06:18:58.297Z,5.57
2022-09-15T06:21:29.215Z,5.17
2022-09-15T06:23:59.259Z,3.93
2022-09-15T06:26:29.314Z,3.77
2022-09-15T06:28:58.821Z,3.23
2022-09-15T06:31:29.448Z,3.60
2022-09-15T06:33:58.526Z,3.20
2022-09-15T06:36:29.453Z,4.00
2022-09-15T06:38:58.363Z,3.00
2022-09-15T06:41:42.639Z,3.03
2022-09-15T06:44:19.759Z,3.33
2022-09-15T06:46:47.867Z,3.47
2022-09-15T06:49:15.951Z,4.20
2022-09-15T06:51:43.939Z,4.20
2022-09-15T06:54:12.197Z,3.83
2022-09-15T06:56:41.483Z,4.07
2022-09-15T06:59:11.900Z,3.37
2022-09-15T07:01:39.874Z,3.40
2022-09-15T07:04:09.863Z,4.33
2022-09-15T07:06:39.881Z,3.80
2022-09-15T07:09:08.155Z,3.90
2022-09-15T07:11:36.291Z,4.13
2022-09-15T07:14:06.123Z,4.10
2022-09-15T07:16:34.463Z,3.77
2022-09-15T07:19:03.677Z,3.93
2022-09-15T07:21:31.776Z,5.93
2022-09-15T07:24:03.845Z,3.97
2022-09-15T07:26:33.809Z,3.87
2022-09-15T07:29:06.148Z,4.60
2022-09-15T07:31:36.439Z,4.73
2022-09-15T07:34:05.153Z,4.43
2022-09-15T07:36:33.495Z,4.20
2022-09-15T07:39:01.477Z,5.20
2022-09-15T07:41:33.051Z,3.90
2022-09-15T07:44:02.339Z,3.57
2022-09-15T07:46:33.928Z,5.50
2022-09-15T07:49:03.180Z,4.10
2022-09-15T07:51:31.829Z,4.40
2022-09-15T07:54:01.174Z,4.53
2022-09-15T07:56:29.302Z,4.67
2022-09-15T07:58:58.380Z,5.20
2022-09-15T08:01:27.053Z,5.73
2022-09-15T08:03:57.173Z,5.37
2022-09-15T08:06:27.753Z,5.10
2022-09-15T08:09:00.505Z,5.40
2022-09-15T08:11:30.213Z,5.73
2022-09-15T08:14:02.164Z,4.93
2022-09-15T08:16:30.304Z,4.63
2022-09-15T08:18:59.816Z,5.03
2022-09-15T08:21:29.068Z,4.50
2022-09-15T08:23:59.533Z,5.20
2022-09-15T08:26:29.497Z,6.23
2022-09-15T08:28:57.957Z,5.17
2022-09-15T08:31:26.309Z,5.23
2022-09-15T08:33:56.623Z,4.50
2022-09-15T08:36:27.652Z,6.03
2022-09-15T08:38:56.120Z,5.30
2022-09-15T08:41:28.934Z,5.30
2022-09-15T08:44:04.540Z,5.20
2022-09-15T08:46:38.708Z,5.40
2022-09-15T08:49:13.818Z,4.73
2022-09-15T08:51:47.640Z,4.63
2022-09-15T08:54:21.555Z,4.83
2022-09-15T08:56:50.229Z,4.10
2022-09-15T08:59:21.805Z,4.40
2022-09-15T09:02:24.309Z,4.20
2022-09-15T09:05:06.696Z,4.70
2022-09-15T09:07:54.263Z,3.67
2022-09-15T09:10:32.157Z,4.10
2022-09-15T09:13:20.901Z,5.10
2022-09-15T09:16:06.045Z,5.50
2022-09-15T09:19:14.463Z,4.50
2022-09-15T09:21:47.069Z,5.47
2022-09-15T09:24:18.877Z,5.53
2022-09-15T09:26:51.179Z,5.87
2022-09-15T09:29:21.761Z,6.67
2022-09-15T09:31:54.018Z,6.17
2022-09-15T09:34:28.683Z,6.87
2022-09-15T09:37:00.382Z,6.23
2022-09-15T09:39:29.904Z,5.43
2022-09-15T09:41:59.095Z,6.20
2022-09-15T09:44:31.892Z,5.20
2022-09-15T09:47:00.658Z,5.87
2022-09-15T09:49:34.174Z,5.83
2022-09-15T09:52:04.719Z,6.00
2022-09-15T09:54:36.582Z,6.40
2022-09-15T09:57:29.296Z,6.50
2022-09-15T09:59:57.473Z,5.37
2022-09-15T10:02:27.930Z,6.10
2022-09-15T10:05:18.078Z,5.17
2022-09-15T10:07:46.120Z,6.70
2022-09-15T10:10:23.420Z,5.67
2022-09-15T10:12:56.287Z,6.00
2022-09-15T10:15:28.220Z,5.87
2022-09-15T10:17:57.904Z,5.30
2022-09-15T10:20:32.452Z,5.87
2022-09-15T10:23:07.206Z,5.30
2022-09-15T10:28:28.631Z,5.67
2022-09-15T10:31:06.117Z,6.33
2022-09-15T10:33:35.997Z,5.90
2022-09-15T10:36:08.267Z,5.90
2022-09-15T10:38:43.613Z,6.20
2022-09-15T10:41:29.293Z,5.80
2022-09-15T10:44:26.999Z,6.03
2022-09-15T10:47:05.044Z,6.60
2022-09-15T10:49:49.276Z,6.60
2022-09-15T10:52:29.127Z,6.83
2022-09-15T10:55:31.837Z,6.70
2022-09-15T10:58:24.122Z,6.57
2022-09-15T11:01:05.167Z,7.67
2022-09-15T11:04:11.041Z,6.90
2022-09-15T11:06:47.235Z,8.37
2022-09-15T11:09:20.347Z,7.80
2022-09-15T11:12:06.142Z,6.20
2022-09-15T11:14:53.194Z,6.50
2022-09-15T11:17:39.871Z,6.30
2022-09-15T11:20:28.318Z,5.93
2022-09-15T11:23:01.283Z,6.00
2022-09-15T11:25:35.381Z,6.10
2022-09-15T11:28:11.507Z,5.03
2022-09-15T11:30:47.896Z,4.63
2022-09-15T11:33:22.682Z,4.20
2022-09-15T11:35:59.358Z,3.77
2022-09-15T11:38:42.795Z,3.87
2022-09-15T11:41:20.059Z,3.53
2022-09-15T11:44:02.620Z,4.40
2022-09-15T11:46:59.581Z,2.97
2022-09-15T11:49:33.342Z,2.73
2022-09-15T11:52:12.066Z,2.83
2022-09-15T11:54:47.744Z,3.20
2022-09-15T11:57:21.518Z,3.00
2022-09-15T11:59:56.531Z,2.80
2022-09-15T12:02:34.327Z,3.07
2022-09-15T12:05:12.083Z,3.10
2022-09-15T12:07:47.943Z,2.70
2022-09-15T12:10:22.531Z,3.60
2022-09-15T12:12:52.016Z,2.97
2022-09-15T12:15:27.135Z,2.70
2022-09-15T12:18:27.322Z,2.97
2022-09-15T12:21:05.230Z,2.70
2022-09-15T12:23:39.100Z,3.20
2022-09-15T12:26:17.418Z,2.60
2022-09-15T12:29:02.290Z,2.40
2022-09-15T12:31:37.199Z,3.00
2022-09-15T12:34:36.012Z,2.77
2022-09-15T12:37:13.963Z,2.73
2022-09-15T12:39:43.891Z,2.50
2022-09-15T12:42:22.134Z,3.57
2022-09-15T12:44:57.137Z,3.33
2022-09-15T12:47:32.776Z,3.50
2022-09-15T12:50:23.105Z,3.33
2022-09-15T12:52:54.491Z,2.90
2022-09-15T12:55:25.154Z,3.07
2022-09-15T12:57:56.526Z,3.00
2022-09-15T13:00:45.642Z,2.70
2022-09-15T13:03:30.436Z,3.30
2022-09-15T13:06:22.482Z,2.90
2022-09-15T13:09:18.704Z,3.00
2022-09-15T13:11:51.020Z,3.40
2022-09-15T13:14:28.948Z,3.60
2022-09-15T13:17:00.927Z,3.27
2022-09-15T13:19:41.102Z,3.50
2022-09-15T13:22:20.747Z,3.30
2022-09-15T13:24:59.088Z,5.00
2022-09-15T13:27:35.839Z,3.27
2022-09-15T13:30:22.959Z,2.63
2022-09-15T13:32:59.292Z,2.80
2022-09-15T13:35:52.199Z,2.77
2022-09-15T13:38:56.475Z,3.67
2022-09-15T13:41:55.127Z,2.80
2022-09-15T13:44:55.620Z,2.90
2022-09-15T13:47:39.844Z,3.07
2022-09-15T13:50:15.984Z,2.83
2022-09-15T13:53:24.093Z,2.57
2022-09-15T13:55:55.531Z,2.57
2022-09-15T14:01:15.268Z,2.67
2022-09-15T14:03:47.844Z,2.50
2022-09-15T14:06:20.550Z,2.73
2022-09-15T14:08:54.374Z,2.23
2022-09-15T14:11:30.638Z,1.90
2022-09-15T14:14:01.679Z,2.10
2022-09-15T14:16:37.487Z,2.20
2022-09-15T14:19:33.500Z,1.97
2022-09-15T14:22:02.966Z,1.90
2022-09-15T14:24:32.617Z,1.67
2022-09-15T14:27:10.331Z,1.77
2022-09-15T14:29:41.921Z,2.57
2022-09-15T14:32:20.119Z,1.63
2022-09-15T14:34:55.205Z,1.90
2022-09-15T14:37:27.537Z,2.10
2022-09-15T14:39:58.303Z,1.97
2022-09-15T14:42:34.205Z,1.90
2022-09-15T14:48:13.708Z,1.90
2022-09-15T14:50:42.515Z,1.53
2022-09-15T14:53:14.536Z,1.73
2022-09-15T14:55:51.496Z,2.10
2022-09-15T14:58:27.457Z,1.93
2022-09-15T15:01:02.636Z,1.60
2022-09-15T15:03:39.105Z,2.03
2022-09-15T15:06:29.973Z,1.77
2022-09-15T15:09:03.706Z,1.80
2022-09-15T15:11:34.230Z,1.57
2022-09-15T15:14:07.286Z,1.63
2022-09-15T15:16:35.583Z,1.53
2022-09-15T15:19:04.232Z,1.67
2022-09-15T15:21:40.964Z,2.17
2022-09-15T15:24:17.749Z,1.50
2022-09-15T15:26:49.601Z,1.50
2022-09-15T15:29:45.439Z,1.90
2022-09-15T15:32:16.927Z,2.00
2022-09-15T15:34:53.242Z,1.43
2022-09-15T15:37:30.098Z,1.93
2022-09-15T15:40:01.189Z,1.60
2022-09-15T15:42:30.602Z,2.17
2022-09-15T15:45:21.052Z,1.87
2022-09-15T15:47:49.549Z,2.00
2022-09-15T15:50:21.150Z,1.63
2022-09-15T15:52:50.435Z,2.00
2022-09-15T15:55:22.152Z,1.83
2022-09-15T15:57:53.158Z,1.50
2022-09-15T16:00:26.353Z,1.80
2022-09-15T16:02:54.511Z,1.63
2022-09-15T16:05:26.870Z,1.83
2022-09-15T16:07:58.483Z,1.93
2022-09-15T16:10:32.036Z,2.20
2022-09-15T16:12:59.964Z,1.60
2022-09-15T16:15:29.245Z,2.10
2022-09-15T16:17:57.204Z,2.83
2022-09-15T16:20:25.318Z,1.87
2022-09-15T16:22:53.460Z,2.73
2022-09-15T16:25:30.913Z,2.07
2022-09-15T16:27:59.826Z,1.77
2022-09-15T16:30:29.477Z,1.83
2022-09-15T16:32:57.790Z,5.00
2022-09-15T16:35:36.234Z,1.70
2022-09-15T16:38:04.351Z,2.33
2022-09-15T16:40:32.341Z,2.43
2022-09-15T16:43:00.836Z,2.27
2022-09-15T16:45:38.249Z,2.43
2022-09-15T16:48:09.137Z,2.07
2022-09-15T16:50:39.828Z,2.40
2022-09-15T16:53:14.550Z,2.67
2022-09-15T16:55:46.551Z,2.57
2022-09-15T16:58:16.025Z,2.47
2022-09-15T17:00:49.244Z,2.20
2022-09-15T17:03:20.194Z,2.13
2022-09-15T17:05:50.975Z,1.77
2022-09-15T17:08:22.885Z,2.50
2022-09-15T17:10:52.811Z,2.23
2022-09-15T17:13:26.319Z,2.43
2022-09-15T17:15:59.144Z,2.33
2022-09-15T17:18:27.709Z,2.67
2022-09-15T17:20:55.852Z,2.30
2022-09-15T17:23:27.678Z,2.27
2022-09-15T17:25:59.022Z,2.30
2022-09-15T17:28:29.348Z,2.30
2022-09-15T17:31:01.097Z,2.20
2022-09-15T17:33:31.055Z,2.67
2022-09-15T17:35:59.759Z,2.43
2022-09-15T17:38:30.185Z,2.67
2022-09-15T17:40:58.667Z,2.40
2022-09-15T17:43:30.152Z,2.67
2022-09-15T17:45:59.792Z,2.70
2022-09-15T17:48:27.813Z,2.67
2022-09-15T17:50:55.828Z,2.67
2022-09-15T17:53:26.635Z,2.10
2022-09-15T17:55:55.761Z,2.70
2022-09-15T17:58:26.557Z,2.37
2022-09-15T18:00:55.162Z,2.77
2022-09-15T18:03:28.104Z,2.60
2022-09-15T18:05:58.303Z,2.90
2022-09-15T18:08:27.264Z,2.80
2022-09-15T18:10:55.822Z,2.10
2022-09-15T18:13:27.174Z,1.97
2022-09-15T18:15:56.049Z,2.73
2022-09-15T18:18:27.763Z,2.67
2022-09-15T18:20:57.839Z,2.00
2022-09-15T18:23:29.382Z,2.27
2022-09-15T18:25:58.074Z,2.50
2022-09-15T18:28:26.259Z,1.80
2022-09-15T18:30:54.296Z,3.80
2022-09-15T18:33:26.103Z,2.20
2022-09-15T18:35:58.825Z,2.10
2022-09-15T18:38:27.272Z,1.73
2022-09-15T18:40:57.284Z,1.60
2022-09-15T18:43:27.224Z,1.80
2022-09-15T18:45:59.447Z,1.80
2022-09-15T18:48:29.809Z,1.20
2022-09-15T18:50:58.961Z,2.33
2022-09-15T18:53:27.163Z,1.60
2022-09-15T18:55:55.117Z,1.33
2022-09-15T18:58:23.994Z,2.10
2022-09-15T19:00:52.060Z,1.40
2022-09-15T19:03:20.083Z,1.50
2022-09-15T19:05:50.581Z,1.60
2022-09-15T19:08:18.614Z,1.40
2022-09-15T19:10:47.838Z,1.40
2022-09-15T19:13:15.924Z,1.30
2022-09-15T19:15:44.434Z,1.37
2022-09-15T19:18:12.544Z,1.27
2022-09-15T19:20:41.067Z,1.20
2022-09-15T19:23:10.645Z,1.23
2022-09-15T19:25:38.944Z,1.27
2022-09-15T19:28:06.990Z,1.00
2022-09-15T19:30:35.095Z,1.70
2022-09-15T19:33:03.959Z,1.80
2022-09-15T19:35:31.916Z,1.20
2022-09-15T19:37:59.934Z,1.30
2022-09-15T19:40:29.314Z,1.30
2022-09-15T19:42:57.373Z,1.57
2022-09-15T19:45:25.336Z,1.30
2022-09-15T19:47:53.455Z,1.40
2022-09-15T19:50:21.459Z,1.30
2022-09-15T19:52:49.438Z,2.07
2022-09-15T19:55:18.176Z,1.17
2022-09-15T19:57:47.558Z,1.30
2022-09-15T20:00:16.377Z,1.20
2022-09-15T20:02:48.845Z,1.30
2022-09-15T20:05:16.985Z,1.50
2022-09-15T20:07:47.951Z,2.00
2022-09-15T20:10:16.329Z,1.57
2022-09-15T20:12:44.591Z,1.90
2022-09-15T20:15:15.081Z,1.87
2022-09-15T20:17:43.131Z,1.60
2022-09-15T20:20:12.361Z,1.47
2022-09-15T20:22:40.421Z,1.90
2022-09-15T20:25:09.084Z,1.63
2022-09-15T20:27:37.073Z,2.00
2022-09-15T20:30:06.825Z,2.37
2022-09-15T20:32:36.253Z,1.30
2022-09-15T20:35:04.488Z,1.93
2022-09-15T20:37:37.298Z,1.80
2022-09-15T20:40:07.783Z,1.70
2022-09-15T20:42:35.833Z,2.20
2022-09-15T20:45:04.678Z,1.60
2022-09-15T20:47:32.789Z,1.63
2022-09-15T20:50:02.105Z,1.63
2022-09-15T20:52:37.483Z,1.63
2022-09-15T20:55:07.235Z,1.70
2022-09-15T20:57:35.358Z,1.60
2022-09-15T21:00:05.847Z,1.50
2022-09-15T21:02:33.938Z,1.63
2022-09-15T21:05:03.688Z,1.70
2022-09-15T21:07:31.790Z,1.40
2022-09-15T21:09:59.740Z,1.37
2022-09-15T21:12:27.744Z,1.27
2022-09-15T21:14:56.648Z,1.37
2022-09-15T21:17:24.644Z,1.67
2022-09-15T21:19:52.723Z,1.50
2022-09-15T21:22:22.073Z,1.50
2022-09-15T21:24:50.065Z,1.20
2022-09-15T21:27:27.334Z,1.60
2022-09-15T21:29:55.380Z,1.70
2022-09-15T21:32:24.309Z,1.20
2022-09-15T21:34:52.276Z,1.47
2022-09-15T21:37:21.661Z,1.90
2022-09-15T21:39:50.245Z,1.60
2022-09-15T21:42:18.400Z,1.40
2022-09-15T21:44:46.813Z,1.50
2022-09-15T21:47:15.809Z,1.63
2022-09-15T21:49:43.839Z,1.40
2022-09-15T21:52:11.959Z,2.20
2022-09-15T21:54:41.390Z,2.07
2022-09-15T21:57:09.877Z,1.40
2022-09-15T21:59:37.887Z,1.80
2022-09-15T22:02:07.635Z,1.07
2022-09-15T22:04:35.600Z,1.70
2022-09-15T22:07:04.134Z,1.33
2022-09-15T22:13:33.337Z,1.50
2022-09-15T22:16:03.109Z,1.87
2022-09-15T22:18:31.122Z,3.20
2022-09-15T22:21:11.142Z,1.40
2022-09-15T22:23:40.052Z,1.70
2022-09-15T22:26:10.344Z,1.30
2022-09-15T22:28:40.176Z,1.63
2022-09-15T22:31:11.458Z,1.77
2022-09-15T22:33:40.937Z,1.50
2022-09-15T22:36:11.705Z,1.30
2022-09-15T22:38:40.170Z,1.50
2022-09-15T22:41:12.036Z,1.80
2022-09-15T22:43:43.002Z,1.17
2022-09-15T22:46:12.089Z,1.73
2022-09-15T22:48:43.498Z,1.40
2022-09-15T22:51:12.144Z,1.60
2022-09-15T22:53:40.137Z,1.60
2022-09-15T22:56:13.987Z,1.07
2022-09-15T22:58:44.977Z,1.30
2022-09-15T23:01:15.708Z,1.20
2022-09-15T23:03:47.465Z,1.70
2022-09-15T23:06:15.676Z,1.23
2022-09-15T23:08:43.791Z,1.23
2022-09-15T23:11:14.108Z,1.97
2022-09-15T23:13:43.463Z,1.47
2022-09-15T23:16:11.620Z,1.70
2022-09-15T23:18:39.603Z,1.60
2022-09-15T23:21:10.481Z,1.20
2022-09-15T23:23:40.925Z,1.50
2022-09-15T23:26:11.634Z,1.40
2022-09-15T23:28:40.345Z,1.43
2022-09-15T23:31:11.827Z,1.60
2022-09-15T23:33:40.805Z,1.60
2022-09-15T23:36:11.355Z,1.47
2022-09-15T23:38:45.587Z,1.20
2022-09-15T23:41:15.530Z,1.17
2022-09-15T23:43:43.835Z,0.90
2022-09-15T23:46:13.616Z,1.17
2022-09-15T23:48:41.928Z,1.20
2022-09-15T23:51:10.694Z,1.40
2022-09-15T23:53:38.752Z,1.73
2022-09-15T23:56:07.430Z,1.07
2022-09-15T23:58:35.508Z,0.90
